Time;durP1;ratioP1;P1;durP2;ratioP2;P2;SDS_P1;SDS_P2;PMS_P1;PMS_P2;Temp;Humidity;BMP_temperature;BMP_pressure;BME280_temperature;BME280_humidity;BME280_pressure;Samples;Min_cycle;Max_cycle;Signal;HPM_P1;HPM_P2
2022/10/22 00:01:00;;;;;;;7.30;3.70;;;;;;;20.15;55.82;100919.00;5085603;28;20075;-38
2022/10/22 00:03:26;;;;;;;8.20;4.40;;;;;;;20.13;56.28;100916.47;5087139;28;20048;-38
2022/10/22 00:05:53;;;;;;;6.15;3.97;;;;;;;20.14;56.35;100918.19;5085256;28;20051;-38
2022/10/22 00:08:20;;;;;;;5.45;3.75;;;;;;;20.14;56.01;100907.41;5084434;28;20056;-38
2022/10/22 00:10:46;;;;;;;7.10;4.32;;;;;;;20.12;55.64;100914.78;5085379;28;20055;-38
2022/10/22 00:13:13;;;;;;;6.35;4.18;;;;;;;20.13;56.18;100921.00;5086888;28;20370;-38
2022/10/22 00:15:40;;;;;;;7.43;4.47;;;;;;;20.13;56.22;100915.63;5086782;28;20249;-38
2022/10/22 00:18:06;;;;;;;6.10;4.03;;;;;;;20.13;56.30;100918.31;5084052;28;20451;-38
2022/10/22 00:20:33;;;;;;;6.00;3.67;;;;;;;20.13;55.83;100929.91;5084531;28;20040;-38
2022/10/22 00:22:59;;;;;;;5.65;3.75;;;;;;;20.12;55.81;100930.94;5084253;28;20040;-38
2022/10/22 00:25:26;;;;;;;6.35;4.00;;;;;;;20.11;55.71;100926.56;5087180;28;20040;-38
2022/10/22 00:27:52;;;;;;;5.45;3.80;;;;;;;20.11;55.93;100928.41;5088910;28;20051;-39
2022/10/22 00:30:19;;;;;;;6.78;4.05;;;;;;;20.11;56.24;100926.56;5089475;28;20067;-39
2022/10/22 00:32:45;;;;;;;5.03;3.45;;;;;;;20.12;55.70;100919.34;5086937;28;20105;-39
2022/10/22 00:35:12;;;;;;;7.40;4.43;;;;;;;20.10;55.70;100930.28;5084309;28;20048;-39
2022/10/22 00:37:38;;;;;;;6.47;3.75;;;;;;;20.10;55.93;100916.81;5088130;28;20416;-39
2022/10/22 00:40:05;;;;;;;5.72;3.53;;;;;;;20.10;55.94;100922.19;5088411;28;20063;-39
2022/10/22 00:42:32;;;;;;;7.93;3.40;;;;;;;20.10;56.58;100924.03;5087388;28;20044;-39
2022/10/22 00:45:26;;;;;;;5.53;3.83;;;;;;;20.07;56.08;100917.13;5083184;28;20048;-39
2022/10/22 00:48:20;;;;;;;6.53;4.13;;;;;;;20.07;56.24;100925.22;5082074;28;20048;-39
2022/10/22 00:50:56;;;;;;;5.80;3.45;;;;;;;20.07;55.68;100927.91;5082175;28;20060;-38
2022/10/22 00:53:32;;;;;;;5.45;3.50;;;;;;;20.07;56.48;100930.59;5086209;28;20056;-38
2022/10/22 00:55:59;;;;;;;6.32;3.53;;;;;;;20.07;56.45;100932.44;5085010;28;20054;-38
2022/10/22 00:58:30;;;;;;;4.72;3.53;;;;;;;20.06;55.83;100934.31;5085070;28;20082;-38
2022/10/22 01:00:57;;;;;;;5.85;3.60;;;;;;;20.06;56.19;100931.63;5086599;28;20044;-38
2022/10/22 01:03:23;;;;;;;8.95;4.00;;;;;;;20.06;55.60;100928.06;5087834;28;20052;-38
2022/10/22 01:05:59;;;;;;;5.28;3.25;;;;;;;20.05;55.82;100929.91;5086532;28;20036;-38
2022/10/22 01:08:38;;;;;;;5.47;3.55;;;;;;;20.04;56.04;100935.47;5084610;28;20056;-38
2022/10/22 01:11:43;;;;;;;5.50;3.40;;;;;;;20.02;55.98;100946.41;5084856;28;20052;-38
2022/10/22 01:14:32;;;;;;;5.38;3.15;;;;;;;20.04;56.05;100939.00;5084886;28;20430;-38
2022/10/22 01:17:01;;;;;;;5.95;3.45;;;;;;;20.03;56.21;100942.69;5087397;28;20047;-38
2022/10/22 01:19:57;;;;;;;5.97;3.63;;;;;;;20.02;56.07;100946.41;5089830;28;20538;-38
2022/10/22 01:22:30;;;;;;;5.43;3.10;;;;;;;20.00;55.96;100948.41;5088452;28;20048;-38
2022/10/22 01:25:15;;;;;;;6.32;2.88;;;;;;;20.01;55.83;100941.16;5086367;28;20044;-38
2022/10/22 01:27:57;;;;;;;4.70;3.22;;;;;;;20.01;56.17;100941.16;5086284;28;20055;-38
2022/10/22 01:30:24;;;;;;;4.65;3.03;;;;;;;20.00;55.94;100942.19;5083431;28;20059;-38
2022/10/22 01:32:55;;;;;;;6.43;3.40;;;;;;;20.01;55.81;100946.53;5087468;28;20059;-38
2022/10/22 01:35:27;;;;;;;7.05;3.53;;;;;;;20.00;56.24;100943.00;5084854;28;20324;-38
2022/10/22 01:38:00;;;;;;;4.22;2.67;;;;;;;19.99;55.97;100930.56;5086595;28;20131;-38
2022/10/22 01:40:28;;;;;;;4.05;2.55;;;;;;;19.98;55.72;100934.28;5084634;28;20101;-38
2022/10/22 01:43:00;;;;;;;7.35;3.13;;;;;;;19.98;56.17;100936.97;5086182;28;20044;-38
2022/10/22 01:45:31;;;;;;;4.82;3.10;;;;;;;19.98;56.61;100931.59;5084195;28;20117;-38
2022/10/22 01:48:37;;;;;;;7.10;3.33;;;;;;;19.96;56.79;100933.59;5086411;28;20044;-38
2022/10/22 01:51:48;;;;;;;4.22;2.90;;;;;;;19.96;56.26;100930.91;5083771;28;20300;-38
2022/10/22 01:54:35;;;;;;;5.78;2.97;;;;;;;19.97;55.81;100927.19;5077777;28;20487;-38
2022/10/22 01:57:27;;;;;;;4.93;3.33;;;;;;;19.97;56.27;100946.03;5084099;28;20048;-38
2022/10/22 02:00:07;;;;;;;5.88;2.90;;;;;;;19.94;56.46;100931.06;5085105;28;20381;-38
2022/10/22 02:03:01;;;;;;;4.53;3.00;;;;;;;19.93;56.45;100925.84;5089425;28;20044;-38
2022/10/22 02:05:32;;;;;;;4.35;2.83;;;;;;;19.96;56.08;100922.84;5089530;28;20048;-38
2022/10/22 02:08:04;;;;;;;4.00;2.55;;;;;;;19.94;56.45;100923.00;5087914;28;20048;-38
2022/10/22 02:10:31;;;;;;;3.72;2.58;;;;;;;19.93;56.77;100926.69;5090959;28;20059;-38
2022/10/22 02:13:00;;;;;;;6.90;3.20;;;;;;;19.93;56.60;100923.16;5087784;28;20055;-38
2022/10/22 02:15:29;;;;;;;6.47;3.10;;;;;;;19.92;56.52;100927.69;5088134;28;20040;-38
2022/10/22 02:17:59;;;;;;;5.18;3.17;;;;;;;19.91;56.51;100915.25;5091051;28;20496;-38
2022/10/22 02:20:34;;;;;;;7.85;3.33;;;;;;;19.90;56.66;100920.78;5087530;28;20051;-38
2022/10/22 02:23:01;;;;;;;3.30;2.22;;;;;;;19.91;56.50;100923.31;5086574;28;20044;-38
2022/10/22 02:25:31;;;;;;;4.13;2.67;;;;;;;19.89;56.09;100914.56;5089288;28;20062;-38
2022/10/22 02:28:07;;;;;;;4.45;2.60;;;;;;;19.89;56.62;100919.94;5088525;28;20348;-38
2022/10/22 02:30:37;;;;;;;4.95;2.95;;;;;;;19.89;56.41;100925.31;5091079;28;20423;-38
2022/10/22 02:33:13;;;;;;;4.18;2.65;;;;;;;19.89;56.43;100927.19;5088102;28;20667;-38
2022/10/22 02:35:40;;;;;;;5.30;2.92;;;;;;;19.89;55.90;100916.41;5087649;28;20131;-38
2022/10/22 02:38:08;;;;;;;5.43;2.95;;;;;;;19.87;56.75;100924.66;5090980;28;20060;-38
2022/10/22 02:40:35;;;;;;;4.50;2.45;;;;;;;19.87;56.06;100921.97;5087759;28;20043;-38
2022/10/22 02:43:04;;;;;;;3.67;2.35;;;;;;;19.87;56.18;100921.13;5090549;28;20458;-38
2022/10/22 02:45:31;;;;;;;7.45;2.33;;;;;;;19.87;56.72;100923.81;5082653;28;20040;-38
2022/10/22 02:47:57;;;;;;;4.82;2.80;;;;;;;19.86;55.93;100924.81;5089563;28;20396;-38
2022/10/22 02:50:24;;;;;;;5.75;2.88;;;;;;;19.86;56.50;100924.81;5090979;28;20051;-38
2022/10/22 02:52:50;;;;;;;6.72;2.60;;;;;;;19.84;55.95;100919.59;5089603;28;20064;-38
2022/10/22 02:55:17;;;;;;;3.75;2.50;;;;;;;19.84;56.67;100922.28;5088507;28;20052;-38
2022/10/22 02:57:43;;;;;;;5.82;2.55;;;;;;;19.84;55.97;100922.28;5088841;28;20041;-38
2022/10/22 03:00:11;;;;;;;5.55;2.38;;;;;;;19.85;56.65;100923.97;5089226;28;20078;-38
2022/10/22 03:02:37;;;;;;;4.40;2.20;;;;;;;19.84;56.71;100932.22;5093597;28;20072;-38
2022/10/22 03:05:04;;;;;;;3.92;2.50;;;;;;;19.84;56.12;100937.59;5092165;28;20052;-38
2022/10/22 03:07:31;;;;;;;6.07;2.55;;;;;;;19.83;56.15;100927.84;5088437;28;20052;-38
2022/10/22 03:09:58;;;;;;;3.75;2.58;;;;;;;19.82;56.32;100929.69;5087063;28;20364;-38
2022/10/22 03:12:24;;;;;;;4.00;2.10;;;;;;;19.83;56.09;100938.59;5087618;28;20059;-38
2022/10/22 03:14:51;;;;;;;3.33;2.13;;;;;;;19.81;56.45;100933.38;5087833;28;20047;-38
2022/10/22 03:17:17;;;;;;;3.70;2.00;;;;;;;19.81;56.43;100936.06;5088290;28;20071;-38
2022/10/22 03:19:44;;;;;;;4.30;2.40;;;;;;;19.80;55.90;100930.84;5089414;28;20040;-38
2022/10/22 03:22:16;;;;;;;2.65;2.05;;;;;;;19.80;56.54;100934.38;5085293;28;20359;-38
2022/10/22 03:24:45;;;;;;;3.72;2.30;;;;;;;19.80;56.01;100937.06;5088301;28;20060;-38
2022/10/22 03:27:15;;;;;;;3.90;2.20;;;;;;;19.79;56.55;100934.56;5090229;28;20075;-38
2022/10/22 03:29:42;;;;;;;4.68;2.20;;;;;;;19.79;56.25;100940.78;5083143;28;20055;-38
2022/10/22 03:32:08;;;;;;;4.28;2.10;;;;;;;19.79;55.84;100938.09;5086094;28;20051;-38
2022/10/22 03:34:35;;;;;;;5.32;2.30;;;;;;;19.78;56.38;100941.78;5087109;28;20059;-38
2022/10/22 03:37:01;;;;;;;3.70;2.33;;;;;;;19.79;56.14;100942.63;5089135;28;20104;-38
2022/10/22 03:39:32;;;;;;;3.42;2.10;;;;;;;19.77;56.44;100948.16;5087103;28;20049;-38
2022/10/22 03:41:58;;;;;;;3.38;1.90;;;;;;;19.77;56.17;100953.53;5089277;28;20059;-38
2022/10/22 03:44:26;;;;;;;4.13;2.20;;;;;;;19.77;56.63;100947.31;5088412;28;20047;-38
2022/10/22 03:46:53;;;;;;;3.60;1.98;;;;;;;19.75;56.61;100952.88;5088678;28;20109;-38
2022/10/22 03:49:25;;;;;;;5.23;2.10;;;;;;;19.75;56.09;100949.34;5090698;28;20048;-38
2022/10/22 03:51:52;;;;;;;5.43;2.17;;;;;;;19.76;56.44;100957.22;5088173;28;20048;-38
2022/10/22 03:54:18;;;;;;;4.05;2.75;;;;;;;19.75;56.17;100950.16;5089733;28;20052;-38
2022/10/22 03:56:44;;;;;;;4.88;2.25;;;;;;;19.73;56.55;100961.06;5089282;28;20036;-38
2022/10/22 03:59:12;;;;;;;3.72;2.10;;;;;;;19.73;56.06;100953.00;5086647;28;20047;-38
2022/10/22 04:01:38;;;;;;;3.58;2.35;;;;;;;19.73;56.54;100957.53;5087013;28;20055;-38
2022/10/22 04:04:05;;;;;;;2.45;1.67;;;;;;;19.73;56.53;100961.06;5085926;28;20051;-38
2022/10/22 04:06:31;;;;;;;3.08;1.80;;;;;;;19.71;56.18;100955.03;5086487;28;20065;-38
2022/10/22 04:08:58;;;;;;;3.47;2.22;;;;;;;19.72;56.13;100963.94;5086014;28;20458;-38
2022/10/22 04:11:24;;;;;;;4.43;2.13;;;;;;;19.72;56.13;100972.00;5082686;28;20510;-38
2022/10/22 04:13:51;;;;;;;3.25;1.92;;;;;;;19.71;56.23;100959.56;5091254;28;20055;-38
2022/10/22 04:16:20;;;;;;;4.82;2.17;;;;;;;19.71;56.89;100965.78;5089644;28;20070;-38
2022/10/22 04:18:47;;;;;;;3.33;2.00;;;;;;;19.71;56.40;100971.16;5089470;28;20489;-38
2022/10/22 04:21:16;;;;;;;3.75;1.95;;;;;;;19.71;56.21;100973.00;5089541;28;20048;-38
2022/10/22 04:23:47;;;;;;;3.33;2.20;;;;;;;19.70;56.59;100979.41;5089077;28;20101;-39
2022/10/22 04:26:14;;;;;;;3.47;2.17;;;;;;;19.71;56.88;100981.09;5088676;28;20643;-38
2022/10/22 04:28:41;;;;;;;3.55;1.85;;;;;;;19.69;56.21;100975.00;5085052;28;20044;-38
2022/10/22 04:31:14;;;;;;;4.10;2.05;;;;;;;19.69;56.68;100983.06;5087640;28;20435;-38
2022/10/22 04:33:41;;;;;;;4.00;2.00;;;;;;;19.70;56.31;100982.09;5087009;28;20044;-38
2022/10/22 04:36:13;;;;;;;4.68;2.03;;;;;;;19.69;56.28;100983.06;5084855;28;20044;-38
2022/10/22 04:38:41;;;;;;;5.85;2.58;;;;;;;19.70;56.56;100980.25;5085738;28;20051;-38
2022/10/22 04:41:11;;;;;;;3.85;1.90;;;;;;;19.70;56.26;100980.25;5086067;28;20355;-38
2022/10/22 04:43:38;;;;;;;3.63;1.90;;;;;;;19.69;56.23;100989.28;5086525;28;20461;-38
2022/10/22 04:46:05;;;;;;;4.05;2.00;;;;;;;19.68;56.17;100982.25;5085961;28;20041;-38
2022/10/22 04:48:32;;;;;;;3.40;1.90;;;;;;;19.67;56.86;100983.25;5085784;28;20047;-38
2022/10/22 04:50:59;;;;;;;5.38;1.98;;;;;;;19.68;56.25;100993.00;5085720;28;20052;-38
2022/10/22 04:53:26;;;;;;;3.60;2.13;;;;;;;19.68;56.89;100997.53;5084509;28;20047;-38
2022/10/22 04:55:53;;;;;;;3.20;1.90;;;;;;;19.69;56.05;100996.53;5089248;28;20047;-38
2022/10/22 04:58:19;;;;;;;2.75;1.90;;;;;;;19.67;56.85;100996.69;5083943;28;20052;-38
2022/10/22 05:00:46;;;;;;;4.47;1.55;;;;;;;19.67;56.79;100996.69;5085750;28;20483;-38
2022/10/22 05:03:13;;;;;;;3.83;1.58;;;;;;;19.68;55.96;100994.84;5086942;28;20097;-38
2022/10/22 05:05:39;;;;;;;4.55;1.77;;;;;;;19.67;56.31;100993.16;5085484;28;20047;-38
2022/10/22 05:08:05;;;;;;;2.47;1.70;;;;;;;19.66;56.49;100994.19;5084635;28;20047;-38
2022/10/22 05:10:32;;;;;;;3.00;1.63;;;;;;;19.65;55.91;100996.00;5087014;28;20039;-38
2022/10/22 05:12:58;;;;;;;5.43;2.05;;;;;;;19.65;56.80;100993.31;5087708;28;20473;-38
2022/10/22 05:15:25;;;;;;;3.28;1.65;;;;;;;19.64;56.71;100991.63;5082977;28;20044;-38
2022/10/22 05:17:52;;;;;;;2.75;1.75;;;;;;;19.64;56.44;100998.84;5088476;28;20378;-38
2022/10/22 05:20:18;;;;;;;4.40;2.17;;;;;;;19.64;56.68;101004.22;5086335;28;20482;-38
2022/10/22 05:22:44;;;;;;;4.63;2.28;;;;;;;19.64;56.66;101006.94;5085046;28;20632;-39
2022/10/22 05:25:11;;;;;;;2.85;1.83;;;;;;;19.64;56.37;101009.63;5086650;28;20049;-38
2022/10/22 05:27:37;;;;;;;3.05;1.95;;;;;;;19.63;56.57;101016.84;5086310;28;20067;-38
2022/10/22 05:30:05;;;;;;;2.28;1.40;;;;;;;19.62;56.13;101011.63;5084125;28;20102;-39
2022/10/22 05:32:34;;;;;;;4.43;2.05;;;;;;;19.62;56.48;101017.84;5088585;28;20531;-38
2022/10/22 05:35:00;;;;;;;2.65;1.70;;;;;;;19.61;56.25;101016.16;5087052;28;20048;-39
2022/10/22 05:37:27;;;;;;;3.72;1.73;;;;;;;19.61;56.17;101009.91;5088168;28;20048;-38
2022/10/22 05:39:53;;;;;;;3.65;2.15;;;;;;;19.61;56.73;101010.75;5086304;28;20138;-38
2022/10/22 05:42:38;;;;;;;5.15;1.95;;;;;;;19.61;56.10;101009.91;5086555;28;20427;-38
2022/10/22 05:45:05;;;;;;;4.90;1.75;;;;;;;19.61;56.21;101017.97;5086669;28;20078;-38
2022/10/22 05:47:32;;;;;;;5.22;1.75;;;;;;;19.60;56.63;101018.97;5081131;28;20449;-39
2022/10/22 05:49:58;;;;;;;2.35;1.67;;;;;;;19.59;56.54;101020.81;5082935;28;20070;-36
2022/10/22 05:52:25;;;;;;;4.28;2.63;;;;;;;19.57;56.09;101021.97;5085898;28;20044;-38
2022/10/22 05:54:52;;;;;;;3.03;1.77;;;;;;;19.58;56.94;101024.53;5082703;28;20052;-39
2022/10/22 05:57:18;;;;;;;4.50;1.90;;;;;;;19.57;56.59;101030.03;5083882;28;20040;-38
2022/10/22 05:59:45;;;;;;;5.57;1.65;;;;;;;19.57;56.75;101028.19;5083828;28;20352;-39
2022/10/22 06:02:11;;;;;;;3.38;1.60;;;;;;;19.57;56.59;101040.78;5087283;28;20044;-38
2022/10/22 06:04:38;;;;;;;3.05;1.90;;;;;;;19.57;56.33;101038.94;5084406;28;20041;-39
2022/10/22 06:07:05;;;;;;;2.75;1.52;;;;;;;19.56;56.78;101039.94;5086431;28;20048;-39
2022/10/22 06:09:35;;;;;;;2.90;1.45;;;;;;;19.55;56.52;101043.66;5087072;28;20040;-39
2022/10/22 06:12:02;;;;;;;4.28;2.00;;;;;;;19.55;56.33;101046.34;5086557;28;20052;-40
2022/10/22 06:14:31;;;;;;;4.00;1.60;;;;;;;19.55;56.33;101043.66;5087365;28;20040;-38
2022/10/22 06:16:58;;;;;;;2.13;1.60;;;;;;;19.56;56.81;101052.56;5086799;28;20036;-38
2022/10/22 06:19:25;;;;;;;3.28;1.90;;;;;;;19.54;56.57;101044.66;5087659;28;20063;-38
2022/10/22 06:21:52;;;;;;;4.13;1.55;;;;;;;19.55;56.06;101057.09;5084980;28;20047;-38
2022/10/22 06:24:18;;;;;;;3.53;1.40;;;;;;;19.54;56.61;101063.47;5082214;28;20052;-38
2022/10/22 06:26:49;;;;;;;2.63;1.65;;;;;;;19.53;56.96;101051.00;5086406;28;20044;-38
2022/10/22 06:29:16;;;;;;;4.72;1.63;;;;;;;19.54;56.42;101063.47;5081648;28;20055;-37
2022/10/22 06:31:42;;;;;;;6.00;1.60;;;;;;;19.54;56.30;101068.84;5082849;28;20170;-38
2022/10/22 06:34:13;;;;;;;3.65;1.98;;;;;;;19.54;56.78;101074.25;5085748;28;20129;-37
2022/10/22 06:36:41;;;;;;;3.83;1.55;;;;;;;19.54;56.60;101082.31;5086973;28;20366;-38
2022/10/22 06:39:11;;;;;;;2.17;1.42;;;;;;;19.54;56.21;101085.00;5084120;28;20526;-38
2022/10/22 06:41:37;;;;;;;4.30;2.17;;;;;;;19.53;56.32;101080.59;5084540;28;20052;-38
2022/10/22 06:44:04;;;;;;;2.75;1.63;;;;;;;19.54;56.25;101084.13;5087462;28;20048;-38
2022/10/22 06:46:31;;;;;;;3.40;1.50;;;;;;;19.54;56.62;101085.00;5085183;28;20067;-39
2022/10/22 06:49:00;;;;;;;1.95;1.35;;;;;;;19.54;56.41;101089.50;5089828;28;20055;-39
2022/10/22 06:51:27;;;;;;;2.60;1.67;;;;;;;19.55;56.62;101093.91;5089985;28;20056;-39
2022/10/22 06:53:55;;;;;;;3.78;1.65;;;;;;;19.54;56.70;101094.88;5088988;28;20417;-39
2022/10/22 06:56:23;;;;;;;2.88;1.60;;;;;;;19.54;56.05;101098.44;5088664;28;20071;-38
2022/10/22 06:58:52;;;;;;;3.00;1.50;;;;;;;19.55;56.55;101097.41;5090722;28;20055;-39
2022/10/22 07:01:21;;;;;;;4.03;1.70;;;;;;;19.55;56.36;101099.28;5087731;28;20051;-39
2022/10/22 07:03:50;;;;;;;2.40;1.45;;;;;;;19.56;56.26;101112.53;5087615;28;20048;-37
2022/10/22 07:06:17;;;;;;;3.25;1.50;;;;;;;19.57;56.12;101108.00;5088328;28;20044;-38
2022/10/22 07:08:43;;;;;;;5.85;1.60;;;;;;;19.56;56.61;101103.63;5087632;28;20055;-39
2022/10/22 07:11:22;;;;;;;2.85;1.67;;;;;;;19.56;56.24;101117.09;5087268;28;20121;-39
2022/10/22 07:13:49;;;;;;;3.50;1.30;;;;;;;19.57;56.27;101114.22;5087755;28;20056;-37
2022/10/22 07:16:17;;;;;;;2.35;1.20;;;;;;;19.58;56.15;101121.31;5079502;28;20691;-38
2022/10/22 07:18:44;;;;;;;6.35;1.67;;;;;;;19.59;56.42;101123.00;5078815;28;20047;-38
2022/10/22 07:21:12;;;;;;;3.75;1.50;;;;;;;19.58;56.38;101124.00;5082193;28;20063;-38
2022/10/22 07:23:39;;;;;;;1.98;1.35;;;;;;;19.60;56.43;101131.91;5084597;28;20325;-38
2022/10/22 07:26:07;;;;;;;3.83;1.85;;;;;;;19.60;56.54;101131.91;5081166;28;20044;-39
2022/10/22 07:28:36;;;;;;;3.78;1.63;;;;;;;19.60;56.59;101139.97;5086421;28;20063;-38
2022/10/22 07:31:03;;;;;;;3.42;1.65;;;;;;;19.60;55.89;101146.19;5083907;28;20685;-39
2022/10/22 07:33:30;;;;;;;4.90;1.58;;;;;;;19.60;56.20;101148.03;5087390;28;20048;-38
2022/10/22 07:36:01;;;;;;;2.75;1.58;;;;;;;19.60;56.34;101154.25;5083426;28;20048;-38
2022/10/22 07:38:28;;;;;;;3.95;1.60;;;;;;;19.61;56.50;101152.41;5086046;28;20052;-38
2022/10/22 07:40:54;;;;;;;3.60;1.30;;;;;;;19.62;56.84;101148.78;5085356;28;20040;-38
2022/10/22 07:43:21;;;;;;;3.25;1.70;;;;;;;19.62;56.62;101155.00;5085914;28;20047;-38
2022/10/22 07:45:47;;;;;;;3.78;1.58;;;;;;;19.62;56.21;101155.00;5082331;28;20052;-39
2022/10/22 07:48:14;;;;;;;4.97;1.60;;;;;;;19.62;55.77;101157.69;5087842;28;20044;-39
2022/10/22 07:50:41;;;;;;;6.72;1.98;;;;;;;19.63;55.97;101162.06;5084409;28;20414;-38
2022/10/22 07:53:12;;;;;;;3.15;1.70;;;;;;;19.63;56.00;101162.06;5085582;28;20049;-38
2022/10/22 07:55:39;;;;;;;2.40;1.63;;;;;;;19.63;55.92;101163.91;5088562;28;20044;-38
2022/10/22 07:58:05;;;;;;;2.83;1.48;;;;;;;19.63;56.22;101172.81;5084960;28;20386;-39
2022/10/22 08:00:32;;;;;;;4.85;1.70;;;;;;;19.64;55.90;101174.47;5085566;28;20079;-39
2022/10/22 08:02:59;;;;;;;4.43;1.67;;;;;;;19.64;55.80;101181.72;5086158;28;20062;-39
2022/10/22 08:05:25;;;;;;;6.18;1.80;;;;;;;19.64;56.05;101189.78;5083439;28;20052;-39
2022/10/22 08:07:52;;;;;;;3.25;2.10;;;;;;;19.65;55.84;101180.69;5083159;28;20041;-39
2022/10/22 08:10:18;;;;;;;3.50;1.63;;;;;;;19.65;56.38;101183.38;5085527;28;20447;-38
2022/10/22 08:12:45;;;;;;;5.65;1.58;;;;;;;19.67;56.46;101195.69;5088901;28;20377;-38
2022/10/22 08:15:11;;;;;;;3.08;1.60;;;;;;;19.68;56.35;101208.13;5083332;28;20047;-38
2022/10/22 08:17:38;;;;;;;5.45;1.80;;;;;;;19.68;56.16;101202.75;5082598;28;20051;-38
2022/10/22 08:20:05;;;;;;;2.75;1.40;;;;;;;19.68;56.03;101200.06;5081175;28;20083;-38
2022/10/22 08:22:32;;;;;;;2.22;1.15;;;;;;;19.70;56.22;101205.31;5085632;28;20050;-38
2022/10/22 08:24:59;;;;;;;3.97;1.70;;;;;;;19.70;56.13;101208.84;5085927;28;20429;-38
2022/10/22 08:27:26;;;;;;;4.00;1.40;;;;;;;19.72;55.98;101208.66;5085202;28;20048;-38
2022/10/22 08:29:52;;;;;;;5.63;1.70;;;;;;;19.71;56.74;101215.91;5085091;28;20044;-38
2022/10/22 08:32:18;;;;;;;5.15;1.40;;;;;;;19.72;55.91;101219.44;5084784;28;20052;-38
2022/10/22 08:34:45;;;;;;;2.30;1.60;;;;;;;19.72;55.95;101224.81;5087048;28;20630;-38
2022/10/22 08:37:13;;;;;;;3.83;1.33;;;;;;;19.71;56.26;101226.66;5089675;28;20086;-38
2022/10/22 08:39:40;;;;;;;2.92;1.75;;;;;;;19.72;55.81;101225.66;5085067;28;20047;-39
2022/10/22 08:42:34;;;;;;;4.93;1.83;;;;;;;19.72;56.53;101228.34;5084141;28;20048;-39
2022/10/22 08:45:28;;;;;;;4.10;1.40;;;;;;;19.72;56.62;101219.44;5085304;28;20318;-39
2022/10/22 08:48:13;;;;;;;5.70;1.77;;;;;;;19.73;56.38;101221.94;5085211;28;20423;-39
2022/10/22 08:50:46;;;;;;;4.15;1.70;;;;;;;19.75;56.35;101227.19;5086967;28;20070;-39
2022/10/22 08:53:22;;;;;;;5.57;1.50;;;;;;;19.75;56.54;101237.94;5084666;28;20054;-38
2022/10/22 08:55:52;;;;;;;8.27;1.50;;;;;;;19.77;56.14;101237.78;5081519;28;20075;-38
2022/10/22 08:58:30;;;;;;;4.38;1.45;;;;;;;19.77;56.41;101245.84;5087684;28;20048;-38
2022/10/22 09:01:01;;;;;;;5.78;1.27;;;;;;;19.79;56.64;101238.50;5079972;28;20097;-38
2022/10/22 09:03:55;;;;;;;6.05;1.58;;;;;;;19.79;56.50;101242.03;5081444;28;20052;-38
2022/10/22 09:06:27;;;;;;;4.28;1.50;;;;;;;19.81;56.83;101248.06;5083931;28;20372;-38
2022/10/22 09:08:56;;;;;;;6.43;1.50;;;;;;;19.83;56.61;101253.31;5083491;28;20142;-38
2022/10/22 09:11:38;;;;;;;6.93;1.52;;;;;;;19.84;56.77;101255.00;5082131;28;20048;-38
2022/10/22 09:14:08;;;;;;;4.88;1.58;;;;;;;19.88;56.58;101261.75;5083939;28;20056;-38
2022/10/22 09:16:50;;;;;;;4.13;1.65;;;;;;;19.90;55.97;101266.00;5083709;28;20566;-38
2022/10/22 09:19:29;;;;;;;4.35;1.60;;;;;;;19.95;55.93;101273.59;5086497;28;20074;-38
2022/10/22 09:22:05;;;;;;;4.15;1.30;;;;;;;20.01;56.28;101277.50;5083796;28;20059;-38
2022/10/22 09:24:42;;;;;;;5.72;1.60;;;;;;;20.05;56.11;101285.09;5085354;28;21186;-38
2022/10/22 09:27:24;;;;;;;3.65;1.33;;;;;;;20.08;55.98;101281.25;5087406;28;20080;-38
2022/10/22 09:29:51;;;;;;;4.63;1.45;;;;;;;20.13;55.87;101282.47;5082541;28;20048;-38
2022/10/22 09:32:17;;;;;;;6.65;1.88;;;;;;;20.15;56.27;101277.78;5085444;28;20059;-38
2022/10/22 09:34:46;;;;;;;4.32;1.42;;;;;;;20.19;56.42;101289.09;5082638;28;20336;-39
2022/10/22 09:37:16;;;;;;;3.97;1.23;;;;;;;20.21;56.18;101298.66;5083104;28;20461;-38
2022/10/22 09:39:45;;;;;;;3.22;1.30;;;;;;;20.26;56.36;101289.28;5083205;28;20446;-38
2022/10/22 09:42:15;;;;;;;7.15;2.15;;;;;;;20.29;56.09;101302.44;5083845;28;20105;-38
2022/10/22 09:44:43;;;;;;;4.38;1.65;;;;;;;20.32;56.14;101296.75;5085267;28;20700;-38
2022/10/22 09:47:33;;;;;;;5.60;1.67;;;;;;;20.34;56.29;101303.66;5083037;28;20044;-38
2022/10/22 09:50:20;;;;;;;4.65;1.60;;;;;;;20.37;55.69;101305.19;5088190;28;20052;-38
2022/10/22 09:52:57;;;;;;;5.93;1.90;;;;;;;20.37;55.69;101306.03;5083238;28;20048;-38
2022/10/22 09:55:25;;;;;;;2.92;1.30;;;;;;;20.40;56.13;101315.63;5080539;28;20059;-38
2022/10/22 09:57:58;;;;;;;4.05;1.27;;;;;;;20.41;56.13;101311.94;5080136;28;20048;-38
2022/10/22 10:00:26;;;;;;;2.90;1.07;;;;;;;20.41;55.76;101320.00;5082524;28;20055;-37
2022/10/22 10:02:57;;;;;;;6.13;1.77;;;;;;;20.43;55.35;101320.72;5081003;28;20499;-38
2022/10/22 10:05:34;;;;;;;4.82;1.35;;;;;;;20.43;55.64;101326.94;5080390;28;20040;-39
2022/10/22 10:08:12;;;;;;;2.78;1.52;;;;;;;20.43;55.31;101326.09;5084540;28;20437;-38
2022/10/22 10:10:51;;;;;;;2.90;1.30;;;;;;;20.43;55.95;101336.88;5081977;28;20052;-38
2022/10/22 10:13:48;;;;;;;4.55;1.52;;;;;;;20.44;55.59;101341.25;5083515;28;20098;-38
2022/10/22 10:16:45;;;;;;;4.55;1.70;;;;;;;20.45;55.51;101342.94;5082507;28;20047;-39
2022/10/22 10:19:42;;;;;;;5.03;1.42;;;;;;;20.44;55.86;101346.63;5086683;28;20075;-38
2022/10/22 10:22:31;;;;;;;4.45;1.55;;;;;;;20.44;55.91;101347.47;5081015;28;20427;-39
2022/10/22 10:25:25;;;;;;;5.43;1.55;;;;;;;20.43;55.83;101351.19;5088093;28;20060;-39
2022/10/22 10:28:15;;;;;;;4.28;1.90;;;;;;;20.44;55.77;101355.56;5085175;28;20098;-39
2022/10/22 10:30:57;;;;;;;6.07;1.90;;;;;;;20.45;55.86;101357.22;5084927;28;20044;-38
2022/10/22 10:33:50;;;;;;;5.07;1.73;;;;;;;20.45;55.79;101357.22;5088349;28;20051;-38
2022/10/22 10:36:43;;;;;;;5.95;2.10;;;;;;;20.49;55.63;101359.66;5060130;28;20044;-39
2022/10/22 10:39:23;;;;;;;3.97;1.63;;;;;;;20.49;55.11;101365.03;5067525;28;20047;-38
2022/10/22 10:42:02;;;;;;;4.05;1.92;;;;;;;20.50;55.49;101369.41;5087447;28;20048;-39
2022/10/22 10:44:34;;;;;;;3.33;1.50;;;;;;;20.51;55.02;101376.50;5084515;28;20056;-39
2022/10/22 10:47:48;;;;;;;3.78;1.83;;;;;;;20.50;55.46;101375.63;5086664;28;20044;-39
2022/10/22 10:50:27;;;;;;;7.40;2.85;;;;;;;20.53;55.78;101377.19;5035757;28;20082;-39
2022/10/22 10:53:26;;;;;;;5.38;2.45;;;;;;;20.52;55.26;101379.03;5087473;28;20058;-39
2022/10/22 10:56:06;;;;;;;7.45;3.17;;;;;;;20.52;55.53;101379.03;5085126;28;20093;-38
2022/10/22 10:58:56;;;;;;;6.60;2.72;;;;;;;20.53;55.91;101386.09;5086787;28;20043;-38
2022/10/22 11:01:41;;;;;;;10.68;3.60;;;;;;;20.53;55.40;101383.41;5087270;28;20373;-38
2022/10/22 11:04:08;;;;;;;7.20;3.92;;;;;;;20.53;55.21;101383.41;5085139;28;20056;-38
2022/10/22 11:06:38;;;;;;;6.95;3.78;;;;;;;20.54;55.68;101378.88;5086961;28;20442;-39
2022/10/22 11:09:13;;;;;;;4.85;2.67;;;;;;;20.55;55.99;101383.28;5086275;28;20347;-39
2022/10/22 11:11:46;;;;;;;8.45;3.25;;;;;;;20.56;55.44;101385.78;5084549;28;20054;-39
2022/10/22 11:14:20;;;;;;;4.47;2.45;;;;;;;20.58;55.36;101385.63;5089271;28;20586;-39
2022/10/22 11:17:04;;;;;;;5.35;2.70;;;;;;;20.59;55.21;101392.72;5085222;28;20054;-39
2022/10/22 11:19:42;;;;;;;7.97;3.42;;;;;;;20.61;55.25;101382.63;5087910;28;20052;-39
2022/10/22 11:22:25;;;;;;;8.05;2.92;;;;;;;20.61;55.06;101394.25;5088789;28;20059;-39
2022/10/22 11:25:03;;;;;;;8.55;3.15;;;;;;;20.63;55.78;101388.72;5085597;28;20154;-39
2022/10/22 11:27:52;;;;;;;6.68;3.25;;;;;;;20.63;55.50;101392.25;5088009;28;20040;-39
2022/10/22 11:30:25;;;;;;;8.15;2.85;;;;;;;20.66;55.42;101396.47;5085556;28;20405;-39
2022/10/22 11:33:00;;;;;;;6.28;2.83;;;;;;;20.66;55.19;101394.63;5087594;28;20055;-39
2022/10/22 11:35:36;;;;;;;6.20;3.10;;;;;;;20.67;55.13;101392.78;5082756;28;20504;-39
2022/10/22 11:38:05;;;;;;;7.75;3.55;;;;;;;20.68;55.59;101392.63;5086990;28;20043;-39
2022/10/22 11:40:37;;;;;;;4.75;2.78;;;;;;;20.70;55.30;101393.31;5083877;28;20088;-39
2022/10/22 11:43:24;;;;;;;6.30;3.22;;;;;;;20.72;55.19;101400.38;5086630;28;20173;-39
2022/10/22 11:45:59;;;;;;;6.50;3.15;;;;;;;20.73;55.39;101402.06;5087014;28;20052;-39